Decoded Metar for UKLI (IVANO-FRANKIVSK in UKRAINE) (IATA:N/A) | Meteo·Mobile Aviation Weather
aviador You're here:

UKLI Decoded Metar

IVANO-FRANKIVSK in UKRAINE
Report Time2018-12-16 11:00:00
UTC Time2018-12-16 11:25:13
Flight Rules mvfr MVFR
Wind120° at 12 kt
W.Decomp.*RWY 10: 11.5 kt HW 3.5 kt RCW
W.Rank120° ranks 4
Current wind is above 120° avg. (7.4)
Visibility9999 m
Phenomena:Light Shower Snow
Clouds:Broken 010 Hf
Broken CB 019 Hf
Expected CloudBase > 400 ft AGL from Temp-Dew spread
Ceiling1,000 ft
Temp-2°C (ISA -15)
Dew Point-3°C (93% RH)
AAT-8.7°C
QNH1019 hPa
Density Alt-1,073 ft
Elevation919 ft
Report Wrong Elevation
Raw Report
UKLI 161100Z 12006MPS 9999 -SHSN BKN010 BKN019CB M02/M03 Q1019
R10/490830 NOSIG=

Extra information for UKLI:More info

Metar Taf Metar & Taf Last 4 Metars F.Rules Stats Wind Profile Meteogram Temp Stats Airport Information Weather charts Add Link Nearby VenuesMetar ALERT Operation Metar Decoded Social comments